createdAt,value
2023-11-23T00:02:06.199Z,2.97
2023-11-23T00:04:52.325Z,2.80
2023-11-23T00:07:39.140Z,2.42
2023-11-23T00:10:24.207Z,3.10
2023-11-23T00:13:09.325Z,2.58
2023-11-23T00:15:54.520Z,2.53
2023-11-23T00:18:39.624Z,2.60
2023-11-23T00:21:24.555Z,2.80
2023-11-23T00:24:10.038Z,2.67
2023-11-23T00:26:55.200Z,2.65
2023-11-23T00:29:40.324Z,2.55
2023-11-23T00:32:25.546Z,2.27
2023-11-23T00:35:10.971Z,2.60
2023-11-23T00:37:55.837Z,2.55
2023-11-23T00:40:40.929Z,2.53
2023-11-23T00:43:25.910Z,2.50
2023-11-23T00:46:13.530Z,2.57
2023-11-23T00:49:00.600Z,2.40
2023-11-23T00:51:46.144Z,2.67
2023-11-23T00:54:38.750Z,2.58
2023-11-23T00:57:23.728Z,2.47
2023-11-23T01:00:09.641Z,2.53
2023-11-23T01:02:55.065Z,2.30
2023-11-23T01:05:40.112Z,2.75
2023-11-23T01:08:24.927Z,2.60
2023-11-23T01:11:10.720Z,2.35
2023-11-23T01:13:55.774Z,2.10
2023-11-23T01:16:41.000Z,2.33
2023-11-23T01:19:26.092Z,2.13
2023-11-23T01:22:10.991Z,2.10
2023-11-23T01:24:56.009Z,2.13
2023-11-23T01:27:40.937Z,2.37
2023-11-23T01:30:25.933Z,2.17
2023-11-23T01:33:10.981Z,2.20
2023-11-23T01:35:56.288Z,2.03
2023-11-23T01:38:41.361Z,2.60
2023-11-23T01:41:26.163Z,1.90
2023-11-23T01:44:14.371Z,2.13
2023-11-23T01:46:59.493Z,2.50
2023-11-23T01:49:45.837Z,2.05
2023-11-23T01:52:31.735Z,2.00
2023-11-23T01:55:17.110Z,2.50
2023-11-23T01:58:04.243Z,1.98
2023-11-23T02:00:51.302Z,2.33
2023-11-23T02:03:36.295Z,2.75
2023-11-23T02:06:21.633Z,2.35
2023-11-23T02:09:06.623Z,2.53
2023-11-23T02:11:51.889Z,2.80
2023-11-23T02:14:37.614Z,2.65
2023-11-23T02:17:24.304Z,2.30
2023-11-23T02:20:11.256Z,2.70
2023-11-23T02:22:56.537Z,2.70
2023-11-23T02:25:41.637Z,2.83
2023-11-23T02:28:27.011Z,3.00
2023-11-23T02:31:12.154Z,2.85
2023-11-23T02:33:57.594Z,2.95
2023-11-23T02:36:42.315Z,3.00
2023-11-23T02:39:27.448Z,2.50
2023-11-23T02:42:12.883Z,2.90
2023-11-23T02:44:57.697Z,2.90
2023-11-23T02:47:42.923Z,3.20
2023-11-23T02:50:28.039Z,3.20
2023-11-23T02:53:28.582Z,2.97
2023-11-23T02:56:13.803Z,3.28
2023-11-23T02:58:58.847Z,3.20
2023-11-23T03:01:43.777Z,2.65
2023-11-23T03:04:29.020Z,3.17
2023-11-23T03:07:14.002Z,3.38
2023-11-23T03:09:58.868Z,2.70
2023-11-23T03:12:43.983Z,3.33
2023-11-23T03:15:29.375Z,2.53
2023-11-23T03:18:14.912Z,2.33
2023-11-23T03:21:00.206Z,3.00
2023-11-23T03:23:46.608Z,3.35
2023-11-23T03:26:32.286Z,3.85
2023-11-23T03:29:17.266Z,3.10
2023-11-23T03:32:03.289Z,3.50
2023-11-23T03:34:48.135Z,2.25
2023-11-23T03:37:33.095Z,2.67
2023-11-23T03:40:17.980Z,3.47
2023-11-23T03:43:02.835Z,2.97
2023-11-23T03:45:48.216Z,3.47
2023-11-23T03:48:33.789Z,3.15
2023-11-23T03:51:18.812Z,3.00
2023-11-23T03:54:04.442Z,3.17
2023-11-23T03:56:49.886Z,3.25
2023-11-23T03:59:35.105Z,3.53
2023-11-23T04:02:20.292Z,2.55
2023-11-23T04:05:05.953Z,3.60
2023-11-23T04:07:51.535Z,3.30
2023-11-23T04:10:36.846Z,3.25
2023-11-23T04:13:22.688Z,3.63
2023-11-23T04:16:07.649Z,3.50
2023-11-23T04:18:52.908Z,3.30
2023-11-23T04:21:37.748Z,3.83
2023-11-23T04:24:23.298Z,3.65
2023-11-23T04:27:09.661Z,3.63
2023-11-23T04:29:55.802Z,4.28
2023-11-23T04:32:41.809Z,3.17
2023-11-23T04:35:26.773Z,3.63
2023-11-23T04:38:12.421Z,3.75
2023-11-23T04:40:57.662Z,4.43
2023-11-23T04:43:42.817Z,4.53
2023-11-23T04:46:28.704Z,5.38
2023-11-23T04:49:13.786Z,4.60
2023-11-23T04:51:58.824Z,4.65
2023-11-23T04:54:43.703Z,4.97
2023-11-23T04:57:28.786Z,3.35
2023-11-23T05:00:14.384Z,5.18
2023-11-23T05:02:59.574Z,4.55
2023-11-23T05:05:44.723Z,5.18
2023-11-23T05:08:29.661Z,4.70
2023-11-23T05:11:15.107Z,4.97
2023-11-23T05:14:08.277Z,4.43
2023-11-23T05:16:53.130Z,4.93
2023-11-23T05:19:42.788Z,4.35
2023-11-23T05:22:28.274Z,3.77
2023-11-23T05:25:13.670Z,4.28
2023-11-23T05:27:59.042Z,5.07
2023-11-23T05:30:46.719Z,4.50
2023-11-23T05:33:31.564Z,2.05
2023-11-23T05:36:16.568Z,4.80
2023-11-23T05:39:01.974Z,4.78
2023-11-23T05:41:47.441Z,5.05
2023-11-23T05:44:33.207Z,5.18
2023-11-23T05:47:18.079Z,3.35
2023-11-23T05:50:04.271Z,4.70
2023-11-23T05:52:49.462Z,4.70
2023-11-23T05:55:34.798Z,3.38
2023-11-23T05:58:19.958Z,5.10
2023-11-23T06:01:10.032Z,5.00
2023-11-23T06:03:57.758Z,4.37
2023-11-23T06:06:43.247Z,4.68
2023-11-23T06:09:28.891Z,3.55
2023-11-23T06:12:13.868Z,5.03
2023-11-23T06:14:59.360Z,4.22
2023-11-23T06:17:45.369Z,4.60
2023-11-23T06:20:30.960Z,4.53
2023-11-23T06:23:15.795Z,4.45
2023-11-23T06:26:01.083Z,3.75
2023-11-23T06:28:46.352Z,4.90
2023-11-23T06:31:32.495Z,3.87
2023-11-23T06:34:18.153Z,2.55
2023-11-23T06:37:03.446Z,2.92
2023-11-23T06:39:48.775Z,4.53
2023-11-23T06:42:35.496Z,5.20
2023-11-23T06:45:22.129Z,5.10
2023-11-23T06:48:07.593Z,4.82
2023-11-23T06:50:52.402Z,4.22
2023-11-23T06:53:44.522Z,4.78
2023-11-23T06:56:29.882Z,5.03
2023-11-23T06:59:15.226Z,4.10
2023-11-23T07:02:00.529Z,5.60
2023-11-23T07:04:45.599Z,5.32
2023-11-23T07:07:33.311Z,5.10
2023-11-23T07:10:20.587Z,4.90
2023-11-23T07:13:08.379Z,5.67
2023-11-23T07:15:56.228Z,5.10
2023-11-23T07:18:41.250Z,5.22
2023-11-23T07:21:26.424Z,5.97
2023-11-23T07:24:11.675Z,3.78
2023-11-23T07:26:56.918Z,5.20
2023-11-23T07:29:42.160Z,4.60
2023-11-23T07:32:27.067Z,5.30
2023-11-23T07:35:13.574Z,5.47
2023-11-23T07:37:59.002Z,5.20
2023-11-23T07:40:44.814Z,5.30
2023-11-23T07:43:31.823Z,5.38
2023-11-23T07:46:17.277Z,5.63
2023-11-23T07:49:02.368Z,3.92
2023-11-23T07:51:47.260Z,4.95
2023-11-23T07:54:32.550Z,5.53
2023-11-23T07:57:18.347Z,5.72
2023-11-23T08:00:05.918Z,5.40
2023-11-23T08:02:51.153Z,4.03
2023-11-23T08:05:36.767Z,5.32
2023-11-23T08:08:22.436Z,4.00
2023-11-23T08:11:07.611Z,3.15
2023-11-23T08:13:52.876Z,4.65
2023-11-23T08:16:38.048Z,5.15
2023-11-23T08:19:26.157Z,5.43
2023-11-23T08:22:13.801Z,4.57
2023-11-23T08:24:58.839Z,5.10
2023-11-23T08:27:43.794Z,4.20
2023-11-23T08:30:29.504Z,4.32
2023-11-23T08:33:16.575Z,4.82
2023-11-23T08:36:01.893Z,4.00
2023-11-23T08:38:47.998Z,5.07
2023-11-23T08:41:33.074Z,4.03
2023-11-23T08:44:17.991Z,3.40
2023-11-23T08:47:04.324Z,2.78
2023-11-23T08:49:50.324Z,4.30
2023-11-23T08:52:35.447Z,4.95
2023-11-23T08:55:20.702Z,5.15
2023-11-23T08:58:06.114Z,5.05
2023-11-23T09:00:51.293Z,5.07
2023-11-23T09:03:36.738Z,4.77
2023-11-23T09:06:23.669Z,3.58
2023-11-23T09:09:09.149Z,5.18
2023-11-23T09:11:54.428Z,5.22
2023-11-23T09:14:47.104Z,4.97
2023-11-23T09:17:35.172Z,3.60
2023-11-23T09:20:22.389Z,5.55
2023-11-23T09:23:07.528Z,4.75
2023-11-23T09:25:52.854Z,5.30
2023-11-23T09:28:37.753Z,5.15
2023-11-23T09:31:23.484Z,4.63
2023-11-23T09:34:09.166Z,4.57
2023-11-23T09:36:54.233Z,4.50
2023-11-23T09:39:39.711Z,3.55
2023-11-23T09:42:27.818Z,4.97
2023-11-23T09:45:16.397Z,4.57
2023-11-23T09:48:02.752Z,4.78
2023-11-23T09:50:48.057Z,3.28
2023-11-23T09:53:34.383Z,4.80
2023-11-23T09:56:19.395Z,4.90
2023-11-23T09:59:05.103Z,4.37
2023-11-23T10:01:55.311Z,1.70
2023-11-23T10:04:40.578Z,4.20
2023-11-23T10:07:27.867Z,3.75
2023-11-23T10:10:13.986Z,3.97
2023-11-23T10:12:59.531Z,4.20
2023-11-23T10:15:45.924Z,3.08
2023-11-23T10:18:38.410Z,4.35
2023-11-23T10:21:24.978Z,4.50
2023-11-23T10:24:10.296Z,4.18
2023-11-23T10:26:56.212Z,3.73
2023-11-23T10:29:41.976Z,4.05
2023-11-23T10:32:27.535Z,3.60
2023-11-23T10:35:14.898Z,4.35
2023-11-23T10:38:00.963Z,4.05
2023-11-23T10:40:47.149Z,3.80
2023-11-23T10:43:37.800Z,4.90
2023-11-23T10:46:24.718Z,3.85
2023-11-23T10:49:09.640Z,3.83
2023-11-23T10:51:55.007Z,3.80
2023-11-23T10:54:40.758Z,3.67
2023-11-23T10:57:27.468Z,3.30
2023-11-23T11:00:16.985Z,2.92
2023-11-23T11:03:05.630Z,3.22
2023-11-23T11:05:51.809Z,3.60
2023-11-23T11:08:38.243Z,2.27
2023-11-23T11:11:25.034Z,2.92
2023-11-23T11:14:14.541Z,3.10
2023-11-23T11:17:09.936Z,3.45
2023-11-23T11:19:55.145Z,3.80
2023-11-23T11:22:40.114Z,4.13
2023-11-23T11:25:41.453Z,3.78
2023-11-23T11:28:29.622Z,3.80
2023-11-23T11:31:16.010Z,3.60
2023-11-23T11:34:01.818Z,3.83
2023-11-23T11:36:58.362Z,3.40
2023-11-23T11:39:44.072Z,3.28
2023-11-23T11:42:30.934Z,3.10
2023-11-23T11:45:18.613Z,2.67
2023-11-23T11:48:04.351Z,3.88
2023-11-23T11:50:56.754Z,4.00
2023-11-23T11:53:41.680Z,2.92
2023-11-23T11:56:26.863Z,3.97
2023-11-23T11:59:13.050Z,4.28
2023-11-23T12:01:58.247Z,3.70
2023-11-23T12:04:43.253Z,3.70
2023-11-23T12:07:28.299Z,3.95
2023-11-23T12:10:14.349Z,3.55
2023-11-23T12:12:59.608Z,3.58
2023-11-23T12:15:47.690Z,3.13
2023-11-23T12:18:36.723Z,2.57
2023-11-23T12:21:22.034Z,3.80
2023-11-23T12:24:07.421Z,4.10
2023-11-23T12:26:53.401Z,4.13
2023-11-23T12:29:39.657Z,3.10
2023-11-23T12:32:25.145Z,3.50
2023-11-23T12:35:10.308Z,3.88
2023-11-23T12:37:55.310Z,3.65
2023-11-23T12:40:40.506Z,3.42
2023-11-23T12:43:26.031Z,4.18
2023-11-23T12:46:11.448Z,3.50
2023-11-23T12:48:56.775Z,3.75
2023-11-23T12:51:42.675Z,3.75
2023-11-23T12:54:27.765Z,3.65
2023-11-23T12:57:13.340Z,4.00
2023-11-23T12:59:58.555Z,3.63
2023-11-23T13:02:43.931Z,3.33
2023-11-23T13:05:30.641Z,2.28
2023-11-23T13:08:15.526Z,3.65
2023-11-23T13:11:00.629Z,3.45
2023-11-23T13:13:46.860Z,2.67
2023-11-23T13:16:32.149Z,2.25
2023-11-23T13:19:26.794Z,3.45
2023-11-23T13:22:18.794Z,3.53
2023-11-23T13:25:05.021Z,3.00
2023-11-23T13:27:56.926Z,2.77
2023-11-23T13:30:42.111Z,1.98
2023-11-23T13:33:28.322Z,3.30
2023-11-23T13:36:14.321Z,2.80
2023-11-23T13:38:59.549Z,3.83
2023-11-23T13:41:44.901Z,3.20
2023-11-23T13:44:30.304Z,4.05
2023-11-23T13:47:15.531Z,3.05
2023-11-23T13:50:00.927Z,2.28
2023-11-23T13:52:46.124Z,2.95
2023-11-23T13:55:31.394Z,2.60
2023-11-23T13:58:18.125Z,3.58
2023-11-23T14:01:03.294Z,3.17
2023-11-23T14:03:48.498Z,2.80
2023-11-23T14:06:34.066Z,2.80
2023-11-23T14:09:19.458Z,2.60
2023-11-23T14:12:05.343Z,2.92
2023-11-23T14:14:50.339Z,3.40
2023-11-23T14:17:35.607Z,3.20
2023-11-23T14:20:24.818Z,2.67
2023-11-23T14:23:10.508Z,3.20
2023-11-23T14:25:55.540Z,2.90
2023-11-23T14:28:40.471Z,2.97
2023-11-23T14:31:25.656Z,2.78
2023-11-23T14:34:11.896Z,2.60
2023-11-23T14:36:57.350Z,1.63
2023-11-23T14:39:44.558Z,2.08
2023-11-23T14:42:38.901Z,2.75
2023-11-23T14:45:29.268Z,2.47
2023-11-23T14:48:16.724Z,2.80
2023-11-23T14:51:01.599Z,2.67
2023-11-23T14:53:51.030Z,2.47
2023-11-23T14:56:36.542Z,2.80
2023-11-23T14:59:26.054Z,2.42
2023-11-23T15:02:11.109Z,2.40
2023-11-23T15:04:56.262Z,2.90
2023-11-23T15:07:41.282Z,1.98
2023-11-23T15:10:26.220Z,2.03
2023-11-23T15:13:15.379Z,2.35
2023-11-23T15:16:03.547Z,2.22
2023-11-23T15:18:48.761Z,2.00
2023-11-23T15:21:34.009Z,2.25
2023-11-23T15:24:20.255Z,2.33
2023-11-23T15:27:07.977Z,1.95
2023-11-23T15:29:53.287Z,2.13
2023-11-23T15:32:43.301Z,2.10
2023-11-23T15:35:30.725Z,2.05
2023-11-23T15:38:16.565Z,1.83
2023-11-23T15:41:01.975Z,2.30
2023-11-23T15:43:47.552Z,2.17
2023-11-23T15:46:32.922Z,2.00
2023-11-23T15:49:18.638Z,1.55
2023-11-23T15:52:03.972Z,2.10
2023-11-23T15:54:49.110Z,1.63
2023-11-23T15:57:34.203Z,1.38
2023-11-23T16:00:24.624Z,1.90
2023-11-23T16:03:09.840Z,1.95
2023-11-23T16:05:55.415Z,1.73
2023-11-23T16:08:41.131Z,1.83
2023-11-23T16:11:26.423Z,1.90
2023-11-23T16:14:11.988Z,2.00
2023-11-23T16:16:57.776Z,1.67
2023-11-23T16:19:42.979Z,1.27
2023-11-23T16:22:27.928Z,1.35
2023-11-23T16:25:13.259Z,1.80
2023-11-23T16:27:59.163Z,1.60
2023-11-23T16:30:44.385Z,1.70
2023-11-23T16:33:29.728Z,2.80
2023-11-23T16:36:26.475Z,1.30
2023-11-23T16:39:19.490Z,1.80
2023-11-23T16:42:05.913Z,1.47
2023-11-23T16:44:50.729Z,1.80
2023-11-23T16:47:35.798Z,1.30
2023-11-23T16:50:20.922Z,1.50
2023-11-23T16:53:05.867Z,1.40
2023-11-23T16:55:52.516Z,1.60
2023-11-23T16:58:39.705Z,1.42
2023-11-23T17:01:25.912Z,1.60
2023-11-23T17:04:11.182Z,1.40
2023-11-23T17:06:58.181Z,1.55
2023-11-23T17:09:43.309Z,1.50
2023-11-23T17:12:28.451Z,1.52
2023-11-23T17:15:13.526Z,1.10
2023-11-23T17:17:58.912Z,1.10
2023-11-23T17:20:43.918Z,1.38
2023-11-23T17:23:29.152Z,1.03
2023-11-23T17:26:16.868Z,1.42
2023-11-23T17:29:01.980Z,1.20
2023-11-23T17:31:50.724Z,1.20
2023-11-23T17:34:36.291Z,1.60
2023-11-23T17:37:21.391Z,1.13
2023-11-23T17:40:07.596Z,1.25
2023-11-23T17:42:52.925Z,1.58
2023-11-23T17:45:38.053Z,1.60
2023-11-23T17:48:25.170Z,1.50
2023-11-23T17:51:14.556Z,1.53
2023-11-23T17:54:00.246Z,1.38
2023-11-23T17:56:45.599Z,1.70
2023-11-23T17:59:43.425Z,1.70
2023-11-23T18:02:34.102Z,1.70
2023-11-23T18:05:19.336Z,0.93
2023-11-23T18:08:04.951Z,1.80
2023-11-23T18:10:51.781Z,1.35
2023-11-23T18:13:37.238Z,1.90
2023-11-23T18:16:22.274Z,2.25
2023-11-23T18:19:08.725Z,2.37
2023-11-23T18:21:53.710Z,1.83
2023-11-23T18:24:39.009Z,2.13
2023-11-23T18:27:24.082Z,2.10
2023-11-23T18:30:09.574Z,2.35
2023-11-23T18:32:54.424Z,1.97
2023-11-23T18:35:39.536Z,2.50
2023-11-23T18:38:24.585Z,2.10
2023-11-23T18:41:09.856Z,2.63
2023-11-23T18:43:56.519Z,2.05
2023-11-23T18:46:45.337Z,1.73
2023-11-23T18:49:31.609Z,2.30
2023-11-23T18:52:18.049Z,2.35
2023-11-23T18:55:03.354Z,1.80
2023-11-23T18:57:48.675Z,2.88
2023-11-23T19:00:33.792Z,2.40
2023-11-23T19:03:19.154Z,2.05
2023-11-23T19:06:05.225Z,2.42
2023-11-23T19:08:51.040Z,3.05
2023-11-23T19:11:38.328Z,2.90
2023-11-23T19:14:24.356Z,1.97
2023-11-23T19:17:10.200Z,3.13
2023-11-23T19:19:55.587Z,3.20
2023-11-23T19:22:41.112Z,3.47
2023-11-23T19:25:30.404Z,2.80
2023-11-23T19:28:17.727Z,3.03
2023-11-23T19:31:06.470Z,3.58
2023-11-23T19:33:53.405Z,3.30
2023-11-23T19:36:42.434Z,3.03
2023-11-23T19:39:28.787Z,3.50
2023-11-23T19:42:21.080Z,3.07
2023-11-23T19:45:07.045Z,2.67
2023-11-23T19:47:53.279Z,2.92
2023-11-23T19:50:38.593Z,3.00
2023-11-23T19:53:26.825Z,3.70
2023-11-23T19:56:11.947Z,3.13
2023-11-23T19:58:58.018Z,1.52
2023-11-23T20:04:29.004Z,1.70
2023-11-23T20:07:14.044Z,3.50
2023-11-23T20:09:59.253Z,2.80
2023-11-23T20:12:44.684Z,3.38
2023-11-23T20:15:29.593Z,3.33
2023-11-23T20:18:14.736Z,2.83
2023-11-23T20:20:59.972Z,2.83
2023-11-23T20:23:45.164Z,3.67
2023-11-23T20:26:30.023Z,2.88
2023-11-23T20:29:15.093Z,2.88
2023-11-23T20:32:00.529Z,3.33
2023-11-23T20:34:46.047Z,3.33
2023-11-23T20:37:31.875Z,3.37
2023-11-23T20:40:18.421Z,3.10
2023-11-23T20:43:03.266Z,2.70
2023-11-23T20:45:48.544Z,3.50
2023-11-23T20:48:33.479Z,2.40
2023-11-23T20:51:18.871Z,3.30
2023-11-23T20:54:06.708Z,2.58
2023-11-23T20:56:56.944Z,3.72
2023-11-23T20:59:42.083Z,2.90
2023-11-23T21:02:28.354Z,3.70
2023-11-23T21:05:13.825Z,2.93
2023-11-23T21:08:00.480Z,3.20
2023-11-23T21:10:48.090Z,3.05
2023-11-23T21:13:33.904Z,2.53
2023-11-23T21:16:19.198Z,4.00
2023-11-23T21:19:04.200Z,3.80
2023-11-23T21:21:50.150Z,3.67
2023-11-23T21:24:35.531Z,2.35
2023-11-23T21:27:20.692Z,3.53
2023-11-23T21:30:07.144Z,3.40
2023-11-23T21:32:53.396Z,2.50
2023-11-23T21:35:39.208Z,3.55
2023-11-23T21:38:24.271Z,3.92
2023-11-23T21:41:16.340Z,2.42
2023-11-23T21:44:01.451Z,3.15
2023-11-23T21:46:46.733Z,3.03
2023-11-23T21:49:32.016Z,2.47
2023-11-23T21:52:17.079Z,2.95
2023-11-23T21:55:04.323Z,2.97
2023-11-23T21:57:49.759Z,3.70
2023-11-23T22:00:34.849Z,2.60
2023-11-23T22:03:20.099Z,3.13
2023-11-23T22:06:05.818Z,3.35
2023-11-23T22:08:51.088Z,2.85
2023-11-23T22:11:35.890Z,3.33
2023-11-23T22:14:22.022Z,3.67
2023-11-23T22:17:07.667Z,3.50
2023-11-23T22:19:53.250Z,3.50
2023-11-23T22:22:38.922Z,3.67
2023-11-23T22:25:24.257Z,3.00
2023-11-23T22:28:10.115Z,1.40
2023-11-23T22:30:55.795Z,2.45
2023-11-23T22:33:42.403Z,3.30
2023-11-23T22:36:27.819Z,2.80
2023-11-23T22:39:14.605Z,2.80
2023-11-23T22:42:00.574Z,2.70
2023-11-23T22:44:45.896Z,2.85
2023-11-23T22:47:31.185Z,3.13
2023-11-23T22:50:16.383Z,3.63
2023-11-23T22:53:01.333Z,3.20
2023-11-23T22:55:46.633Z,2.80
2023-11-23T22:58:31.776Z,3.03
2023-11-23T23:01:17.622Z,1.63
2023-11-23T23:04:03.117Z,1.95
2023-11-23T23:06:48.104Z,3.28
2023-11-23T23:09:33.766Z,2.97
2023-11-23T23:12:19.033Z,3.13
2023-11-23T23:15:05.522Z,3.35
2023-11-23T23:17:52.419Z,2.80
2023-11-23T23:20:38.623Z,2.88
2023-11-23T23:23:23.947Z,2.97
2023-11-23T23:26:09.990Z,3.00
2023-11-23T23:28:55.244Z,3.17
2023-11-23T23:31:40.568Z,3.40
2023-11-23T23:34:25.794Z,3.38
2023-11-23T23:37:10.956Z,3.30
2023-11-23T23:39:56.089Z,3.83
2023-11-23T23:42:43.342Z,3.13
2023-11-23T23:45:28.371Z,3.03
2023-11-23T23:48:13.204Z,4.03
2023-11-23T23:50:58.172Z,3.07
2023-11-23T23:53:43.692Z,1.88
2023-11-23T23:56:28.983Z,1.63
2023-11-23T23:59:14.241Z,1.23
